sensor_id;sensor_type;location;lat;lon;timestamp;pressure;altitude;pressure_sealevel;temperature
68127;BMP180;54931;52.098;21.006;2023-05-10T00:01:46;100885.60;;;5.20
68127;BMP180;54931;52.098;21.006;2023-05-10T00:04:14;100884.80;;;5.12
68127;BMP180;54931;52.098;21.006;2023-05-10T00:06:42;100881.40;;;5.10
68127;BMP180;54931;52.098;21.006;2023-05-10T00:09:10;100880.80;;;5.10
68127;BMP180;54931;52.098;21.006;2023-05-10T00:11:38;100879.00;;;5.10
68127;BMP180;54931;52.098;21.006;2023-05-10T00:14:05;100878.20;;;5.10
68127;BMP180;54931;52.098;21.006;2023-05-10T00:16:33;100878.20;;;5.10
68127;BMP180;54931;52.098;21.006;2023-05-10T00:19:00;100873.60;;;5.10
68127;BMP180;54931;52.098;21.006;2023-05-10T00:21:28;100871.80;;;5.10
68127;BMP180;54931;52.098;21.006;2023-05-10T00:23:56;100868.40;;;5.04
68127;BMP180;54931;52.098;21.006;2023-05-10T00:26:24;100868.60;;;5.00
68127;BMP180;54931;52.098;21.006;2023-05-10T00:28:51;100861.60;;;5.06
68127;BMP180;54931;52.098;21.006;2023-05-10T00:31:19;100859.00;;;5.02
68127;BMP180;54931;52.098;21.006;2023-05-10T00:33:47;100859.00;;;5.00
68127;BMP180;54931;52.098;21.006;2023-05-10T00:36:15;100855.60;;;5.00
68127;BMP180;54931;52.098;21.006;2023-05-10T00:38:42;100855.80;;;5.00
68127;BMP180;54931;52.098;21.006;2023-05-10T00:41:10;100854.00;;;5.02
68127;BMP180;54931;52.098;21.006;2023-05-10T00:43:38;100853.80;;;5.10
68127;BMP180;54931;52.098;21.006;2023-05-10T00:46:06;100848.60;;;5.10
68127;BMP180;54931;52.098;21.006;2023-05-10T00:48:34;100848.80;;;5.14
68127;BMP180;54931;52.098;21.006;2023-05-10T00:51:03;100847.60;;;5.18
68127;BMP180;54931;52.098;21.006;2023-05-10T00:53:31;100841.60;;;5.20
68127;BMP180;54931;52.098;21.006;2023-05-10T00:56:00;100843.40;;;5.20
68127;BMP180;54931;52.098;21.006;2023-05-10T00:58:28;100844.20;;;5.20
68127;BMP180;54931;52.098;21.006;2023-05-10T01:00:58;100842.60;;;5.20
68127;BMP180;54931;52.098;21.006;2023-05-10T01:03:27;100844.20;;;5.20
68127;BMP180;54931;52.098;21.006;2023-05-10T01:05:55;100841.60;;;5.20
68127;BMP180;54931;52.098;21.006;2023-05-10T01:08:24;100838.00;;;5.20
68127;BMP180;54931;52.098;21.006;2023-05-10T01:10:52;100838.40;;;5.10
68127;BMP180;54931;52.098;21.006;2023-05-10T01:13:33;100839.40;;;5.10
68127;BMP180;54931;52.098;21.006;2023-05-10T01:16:00;100839.00;;;5.10
68127;BMP180;54931;52.098;21.006;2023-05-10T01:18:38;100838.20;;;5.10
68127;BMP180;54931;52.098;21.006;2023-05-10T01:33:45;100827.80;;;4.90
68127;BMP180;54931;52.098;21.006;2023-05-10T01:36:32;100829.00;;;4.90
68127;BMP180;54931;52.098;21.006;2023-05-10T01:39:17;100828.20;;;4.80
68127;BMP180;54931;52.098;21.006;2023-05-10T01:42:08;100826.60;;;4.74
68127;BMP180;54931;52.098;21.006;2023-05-10T01:47:26;100825.80;;;4.70
68127;BMP180;54931;52.098;21.006;2023-05-10T01:49:56;100823.80;;;4.68
68127;BMP180;54931;52.098;21.006;2023-05-10T01:52:33;100820.40;;;4.60
68127;BMP180;54931;52.098;21.006;2023-05-10T01:55:09;100819.00;;;4.60
68127;BMP180;54931;52.098;21.006;2023-05-10T01:57:40;100820.00;;;4.60
68127;BMP180;54931;52.098;21.006;2023-05-10T02:00:11;100819.60;;;4.50
68127;BMP180;54931;52.098;21.006;2023-05-10T02:02:45;100815.60;;;4.50
68127;BMP180;54931;52.098;21.006;2023-05-10T02:05:15;100813.80;;;4.50
68127;BMP180;54931;52.098;21.006;2023-05-10T02:07:44;100815.00;;;4.56
68127;BMP180;54931;52.098;21.006;2023-05-10T02:10:14;100814.60;;;4.50
68127;BMP180;54931;52.098;21.006;2023-05-10T02:12:46;100811.00;;;4.50
68127;BMP180;54931;52.098;21.006;2023-05-10T02:15:20;100816.80;;;4.50
68127;BMP180;54931;52.098;21.006;2023-05-10T02:17:50;100812.00;;;4.50
68127;BMP180;54931;52.098;21.006;2023-05-10T02:20:20;100810.40;;;4.50
68127;BMP180;54931;52.098;21.006;2023-05-10T02:22:51;100813.80;;;4.52
68127;BMP180;54931;52.098;21.006;2023-05-10T02:25:22;100807.60;;;4.50
68127;BMP180;54931;52.098;21.006;2023-05-10T02:27:54;100809.80;;;4.50
68127;BMP180;54931;52.098;21.006;2023-05-10T02:30:23;100801.40;;;4.50
68127;BMP180;54931;52.098;21.006;2023-05-10T02:32:52;100806.20;;;4.48
68127;BMP180;54931;52.098;21.006;2023-05-10T02:35:22;100804.60;;;4.48
68127;BMP180;54931;52.098;21.006;2023-05-10T02:37:50;100801.80;;;4.44
68127;BMP180;54931;52.098;21.006;2023-05-10T02:40:21;100805.60;;;4.40
68127;BMP180;54931;52.098;21.006;2023-05-10T02:42:52;100805.20;;;4.40
68127;BMP180;54931;52.098;21.006;2023-05-10T02:45:27;100804.00;;;4.40
68127;BMP180;54931;52.098;21.006;2023-05-10T02:47:56;100801.00;;;4.40
68127;BMP180;54931;52.098;21.006;2023-05-10T02:50:28;100805.40;;;4.40
68127;BMP180;54931;52.098;21.006;2023-05-10T02:53:01;100813.20;;;4.40
68127;BMP180;54931;52.098;21.006;2023-05-10T02:55:39;100807.60;;;4.40
68127;BMP180;54931;52.098;21.006;2023-05-10T02:58:07;100802.60;;;4.30
68127;BMP180;54931;52.098;21.006;2023-05-10T03:00:36;100804.60;;;4.30
68127;BMP180;54931;52.098;21.006;2023-05-10T03:03:03;100811.00;;;4.30
68127;BMP180;54931;52.098;21.006;2023-05-10T03:05:31;100808.80;;;4.20
68127;BMP180;54931;52.098;21.006;2023-05-10T03:07:59;100809.40;;;4.20
68127;BMP180;54931;52.098;21.006;2023-05-10T03:10:32;100810.20;;;4.20
68127;BMP180;54931;52.098;21.006;2023-05-10T03:17:04;100812.00;;;4.20
68127;BMP180;54931;52.098;21.006;2023-05-10T03:20:03;100806.40;;;4.20
68127;BMP180;54931;52.098;21.006;2023-05-10T03:22:44;100810.60;;;4.20
68127;BMP180;54931;52.098;21.006;2023-05-10T03:25:16;100806.40;;;4.20
68127;BMP180;54931;52.098;21.006;2023-05-10T03:27:46;100807.40;;;4.20
68127;BMP180;54931;52.098;21.006;2023-05-10T03:30:15;100808.00;;;4.20
68127;BMP180;54931;52.098;21.006;2023-05-10T03:32:43;100806.80;;;4.20
68127;BMP180;54931;52.098;21.006;2023-05-10T03:35:13;100801.20;;;4.30
68127;BMP180;54931;52.098;21.006;2023-05-10T03:37:42;100799.40;;;4.30
68127;BMP180;54931;52.098;21.006;2023-05-10T03:40:10;100799.80;;;4.34
68127;BMP180;54931;52.098;21.006;2023-05-10T03:42:40;100807.60;;;4.40
68127;BMP180;54931;52.098;21.006;2023-05-10T03:45:09;100812.00;;;4.50
68127;BMP180;54931;52.098;21.006;2023-05-10T03:47:38;100806.60;;;4.50
68127;BMP180;54931;52.098;21.006;2023-05-10T03:50:07;100806.60;;;4.60
68127;BMP180;54931;52.098;21.006;2023-05-10T03:52:35;100807.80;;;4.70
68127;BMP180;54931;52.098;21.006;2023-05-10T03:55:04;100802.20;;;4.70
68127;BMP180;54931;52.098;21.006;2023-05-10T03:57:32;100798.80;;;4.80
68127;BMP180;54931;52.098;21.006;2023-05-10T03:59:59;100806.20;;;4.90
68127;BMP180;54931;52.098;21.006;2023-05-10T04:02:27;100806.40;;;4.98
68127;BMP180;54931;52.098;21.006;2023-05-10T04:04:55;100801.00;;;5.00
68127;BMP180;54931;52.098;21.006;2023-05-10T04:07:23;100807.20;;;5.10
68127;BMP180;54931;52.098;21.006;2023-05-10T04:09:51;100808.60;;;5.20
68127;BMP180;54931;52.098;21.006;2023-05-10T04:12:19;100806.40;;;5.30
68127;BMP180;54931;52.098;21.006;2023-05-10T04:14:47;100812.20;;;5.40
68127;BMP180;54931;52.098;21.006;2023-05-10T04:17:15;100807.60;;;5.62
68127;BMP180;54931;52.098;21.006;2023-05-10T04:19:43;100811.60;;;6.00
68127;BMP180;54931;52.098;21.006;2023-05-10T04:22:10;100810.20;;;6.34
68127;BMP180;54931;52.098;21.006;2023-05-10T04:24:38;100810.60;;;6.70
68127;BMP180;54931;52.098;21.006;2023-05-10T04:27:06;100814.40;;;7.00
68127;BMP180;54931;52.098;21.006;2023-05-10T04:29:34;100815.00;;;7.30
68127;BMP180;54931;52.098;21.006;2023-05-10T04:32:01;100813.60;;;7.60
68127;BMP180;54931;52.098;21.006;2023-05-10T04:34:29;100817.80;;;7.88
68127;BMP180;54931;52.098;21.006;2023-05-10T04:36:57;100821.60;;;8.20
68127;BMP180;54931;52.098;21.006;2023-05-10T04:39:25;100822.20;;;8.40
68127;BMP180;54931;52.098;21.006;2023-05-10T04:41:52;100820.80;;;8.70
68127;BMP180;54931;52.098;21.006;2023-05-10T04:44:20;100820.40;;;9.00
68127;BMP180;54931;52.098;21.006;2023-05-10T04:46:48;100819.60;;;9.36
68127;BMP180;54931;52.098;21.006;2023-05-10T04:49:15;100822.80;;;9.60
68127;BMP180;54931;52.098;21.006;2023-05-10T04:51:44;100820.20;;;9.80
68127;BMP180;54931;52.098;21.006;2023-05-10T04:54:11;100826.40;;;9.90
68127;BMP180;54931;52.098;21.006;2023-05-10T04:56:39;100831.00;;;10.00
68127;BMP180;54931;52.098;21.006;2023-05-10T04:59:07;100830.80;;;10.10
68127;BMP180;54931;52.098;21.006;2023-05-10T05:01:35;100834.60;;;10.22
68127;BMP180;54931;52.098;21.006;2023-05-10T05:04:03;100834.40;;;10.52
68127;BMP180;54931;52.098;21.006;2023-05-10T05:06:31;100834.00;;;10.80
68127;BMP180;54931;52.098;21.006;2023-05-10T05:08:59;100829.20;;;11.04
68127;BMP180;54931;52.098;21.006;2023-05-10T05:11:26;100829.40;;;11.20
68127;BMP180;54931;52.098;21.006;2023-05-10T05:13:54;100827.40;;;11.38
68127;BMP180;54931;52.098;21.006;2023-05-10T05:16:22;100832.20;;;11.60
68127;BMP180;54931;52.098;21.006;2023-05-10T05:18:49;100828.60;;;11.68
68127;BMP180;54931;52.098;21.006;2023-05-10T05:21:19;100826.20;;;11.80
68127;BMP180;54931;52.098;21.006;2023-05-10T05:23:47;100825.20;;;11.84
68127;BMP180;54931;52.098;21.006;2023-05-10T05:26:15;100828.20;;;12.10
68127;BMP180;54931;52.098;21.006;2023-05-10T05:28:43;100831.00;;;12.30
68127;BMP180;54931;52.098;21.006;2023-05-10T05:31:11;100832.60;;;12.58
68127;BMP180;54931;52.098;21.006;2023-05-10T05:33:38;100833.80;;;12.66
68127;BMP180;54931;52.098;21.006;2023-05-10T05:36:07;100825.60;;;12.90
68127;BMP180;54931;52.098;21.006;2023-05-10T05:38:35;100831.40;;;13.02
68127;BMP180;54931;52.098;21.006;2023-05-10T05:41:03;100824.60;;;13.06
68127;BMP180;54931;52.098;21.006;2023-05-10T05:43:30;100830.40;;;13.00
68127;BMP180;54931;52.098;21.006;2023-05-10T05:45:58;100832.00;;;13.14
68127;BMP180;54931;52.098;21.006;2023-05-10T05:48:25;100833.40;;;13.40
68127;BMP180;54931;52.098;21.006;2023-05-10T05:50:57;100834.40;;;13.54
68127;BMP180;54931;52.098;21.006;2023-05-10T05:53:25;100832.00;;;13.76
68127;BMP180;54931;52.098;21.006;2023-05-10T05:55:58;100836.00;;;13.94
68127;BMP180;54931;52.098;21.006;2023-05-10T05:58:25;100840.60;;;14.10
68127;BMP180;54931;52.098;21.006;2023-05-10T06:00:53;100841.00;;;14.10
68127;BMP180;54931;52.098;21.006;2023-05-10T06:03:21;100842.60;;;14.20
68127;BMP180;54931;52.098;21.006;2023-05-10T06:05:49;100846.00;;;14.46
68127;BMP180;54931;52.098;21.006;2023-05-10T06:08:17;100853.40;;;14.60
68127;BMP180;54931;52.098;21.006;2023-05-10T06:10:44;100850.60;;;14.60
68127;BMP180;54931;52.098;21.006;2023-05-10T06:13:12;100852.00;;;14.58
68127;BMP180;54931;52.098;21.006;2023-05-10T06:15:40;100844.80;;;14.80
68127;BMP180;54931;52.098;21.006;2023-05-10T06:18:08;100847.80;;;14.80
68127;BMP180;54931;52.098;21.006;2023-05-10T06:20:36;100840.40;;;14.94
68127;BMP180;54931;52.098;21.006;2023-05-10T06:23:03;100845.80;;;15.10
68127;BMP180;54931;52.098;21.006;2023-05-10T06:25:31;100847.20;;;15.30
68127;BMP180;54931;52.098;21.006;2023-05-10T06:27:59;100847.00;;;15.60
68127;BMP180;54931;52.098;21.006;2023-05-10T06:30:27;100845.40;;;15.78
68127;BMP180;54931;52.098;21.006;2023-05-10T06:32:55;100847.00;;;16.12
68127;BMP180;54931;52.098;21.006;2023-05-10T06:35:23;100846.60;;;16.14
68127;BMP180;54931;52.098;21.006;2023-05-10T06:37:51;100847.80;;;16.34
68127;BMP180;54931;52.098;21.006;2023-05-10T06:40:19;100851.00;;;16.60
68127;BMP180;54931;52.098;21.006;2023-05-10T06:42:48;100852.40;;;16.66
68127;BMP180;54931;52.098;21.006;2023-05-10T06:45:16;100851.60;;;16.70
68127;BMP180;54931;52.098;21.006;2023-05-10T06:47:43;100852.80;;;16.50
68127;BMP180;54931;52.098;21.006;2023-05-10T06:50:11;100847.80;;;16.50
68127;BMP180;54931;52.098;21.006;2023-05-10T06:52:39;100851.00;;;16.52
68127;BMP180;54931;52.098;21.006;2023-05-10T06:55:07;100850.40;;;16.54
68127;BMP180;54931;52.098;21.006;2023-05-10T06:57:36;100846.20;;;16.70
68127;BMP180;54931;52.098;21.006;2023-05-10T07:00:05;100844.20;;;16.68
68127;BMP180;54931;52.098;21.006;2023-05-10T07:02:34;100845.00;;;16.52
68127;BMP180;54931;52.098;21.006;2023-05-10T07:05:02;100836.80;;;16.50
68127;BMP180;54931;52.098;21.006;2023-05-10T07:07:30;100840.60;;;16.66
68127;BMP180;54931;52.098;21.006;2023-05-10T07:09:58;100844.60;;;16.70
68127;BMP180;54931;52.098;21.006;2023-05-10T07:12:27;100833.60;;;16.86
68127;BMP180;54931;52.098;21.006;2023-05-10T07:14:55;100835.80;;;16.80
68127;BMP180;54931;52.098;21.006;2023-05-10T07:17:22;100835.00;;;16.78
68127;BMP180;54931;52.098;21.006;2023-05-10T07:19:50;100832.60;;;17.04
68127;BMP180;54931;52.098;21.006;2023-05-10T07:22:18;100840.40;;;17.14
68127;BMP180;54931;52.098;21.006;2023-05-10T07:24:45;100836.80;;;17.10
68127;BMP180;54931;52.098;21.006;2023-05-10T07:27:13;100833.40;;;17.20
68127;BMP180;54931;52.098;21.006;2023-05-10T07:29:41;100834.20;;;17.14
68127;BMP180;54931;52.098;21.006;2023-05-10T07:32:09;100832.60;;;17.10
68127;BMP180;54931;52.098;21.006;2023-05-10T07:34:37;100835.40;;;17.20
68127;BMP180;54931;52.098;21.006;2023-05-10T07:37:05;100837.60;;;17.26
68127;BMP180;54931;52.098;21.006;2023-05-10T07:39:33;100847.60;;;17.28
68127;BMP180;54931;52.098;21.006;2023-05-10T07:42:02;100842.80;;;17.30
68127;BMP180;54931;52.098;21.006;2023-05-10T07:44:30;100836.60;;;17.24
68127;BMP180;54931;52.098;21.006;2023-05-10T07:46:57;100851.40;;;17.30
68127;BMP180;54931;52.098;21.006;2023-05-10T07:49:25;100843.60;;;17.20
68127;BMP180;54931;52.098;21.006;2023-05-10T07:51:53;100842.40;;;17.26
68127;BMP180;54931;52.098;21.006;2023-05-10T07:54:21;100838.60;;;17.32
68127;BMP180;54931;52.098;21.006;2023-05-10T07:56:48;100836.20;;;17.22
68127;BMP180;54931;52.098;21.006;2023-05-10T07:59:17;100832.20;;;17.10
68127;BMP180;54931;52.098;21.006;2023-05-10T08:01:45;100833.80;;;17.36
68127;BMP180;54931;52.098;21.006;2023-05-10T08:04:13;100831.00;;;17.50
68127;BMP180;54931;52.098;21.006;2023-05-10T08:06:40;100832.60;;;17.44
68127;BMP180;54931;52.098;21.006;2023-05-10T08:09:08;100823.60;;;17.54
68127;BMP180;54931;52.098;21.006;2023-05-10T08:11:36;100827.80;;;17.70
68127;BMP180;54931;52.098;21.006;2023-05-10T08:14:04;100834.00;;;17.78
68127;BMP180;54931;52.098;21.006;2023-05-10T08:16:31;100838.80;;;17.82
68127;BMP180;54931;52.098;21.006;2023-05-10T08:19:00;100823.80;;;17.84
68127;BMP180;54931;52.098;21.006;2023-05-10T08:21:28;100822.60;;;18.00
68127;BMP180;54931;52.098;21.006;2023-05-10T08:23:55;100825.20;;;17.94
68127;BMP180;54931;52.098;21.006;2023-05-10T08:26:23;100819.60;;;17.82
68127;BMP180;54931;52.098;21.006;2023-05-10T08:28:51;100824.80;;;17.76
68127;BMP180;54931;52.098;21.006;2023-05-10T08:31:19;100816.40;;;17.74
68127;BMP180;54931;52.098;21.006;2023-05-10T08:33:47;100817.40;;;17.74
68127;BMP180;54931;52.098;21.006;2023-05-10T08:36:14;100824.40;;;17.54
68127;BMP180;54931;52.098;21.006;2023-05-10T08:38:56;100822.40;;;17.54
68127;BMP180;54931;52.098;21.006;2023-05-10T08:41:25;100822.80;;;17.86
68127;BMP180;54931;52.098;21.006;2023-05-10T08:43:55;100828.40;;;18.16
68127;BMP180;54931;52.098;21.006;2023-05-10T08:46:23;100819.80;;;18.20
68127;BMP180;54931;52.098;21.006;2023-05-10T08:48:51;100822.40;;;18.34
68127;BMP180;54931;52.098;21.006;2023-05-10T08:51:24;100819.20;;;18.34
68127;BMP180;54931;52.098;21.006;2023-05-10T08:53:55;100827.60;;;18.40
68127;BMP180;54931;52.098;21.006;2023-05-10T08:56:23;100825.00;;;18.46
68127;BMP180;54931;52.098;21.006;2023-05-10T08:58:51;100827.60;;;18.80
68127;BMP180;54931;52.098;21.006;2023-05-10T09:01:21;100828.60;;;18.76
68127;BMP180;54931;52.098;21.006;2023-05-10T09:03:50;100827.60;;;18.62
68127;BMP180;54931;52.098;21.006;2023-05-10T09:06:18;100825.60;;;18.80
68127;BMP180;54931;52.098;21.006;2023-05-10T09:08:46;100820.80;;;19.02
68127;BMP180;54931;52.098;21.006;2023-05-10T09:11:16;100816.20;;;19.16
68127;BMP180;54931;52.098;21.006;2023-05-10T09:13:44;100817.00;;;19.40
68127;BMP180;54931;52.098;21.006;2023-05-10T09:16:14;100811.80;;;19.48
68127;BMP180;54931;52.098;21.006;2023-05-10T09:18:42;100809.80;;;19.56
68127;BMP180;54931;52.098;21.006;2023-05-10T09:21:10;100808.20;;;19.68
68127;BMP180;54931;52.098;21.006;2023-05-10T09:23:43;100806.80;;;19.48
68127;BMP180;54931;52.098;21.006;2023-05-10T09:26:10;100802.60;;;19.40
68127;BMP180;54931;52.098;21.006;2023-05-10T09:28:59;100802.80;;;19.14
68127;BMP180;54931;52.098;21.006;2023-05-10T09:31:50;100795.60;;;19.26
68127;BMP180;54931;52.098;21.006;2023-05-10T09:34:29;100797.40;;;19.14
68127;BMP180;54931;52.098;21.006;2023-05-10T09:37:02;100807.40;;;19.10
68127;BMP180;54931;52.098;21.006;2023-05-10T09:39:38;100817.20;;;19.20
68127;BMP180;54931;52.098;21.006;2023-05-10T09:42:09;100811.00;;;19.10
68127;BMP180;54931;52.098;21.006;2023-05-10T09:44:37;100806.80;;;19.12
68127;BMP180;54931;52.098;21.006;2023-05-10T09:47:05;100801.60;;;19.10
68127;BMP180;54931;52.098;21.006;2023-05-10T09:49:34;100812.00;;;19.18
68127;BMP180;54931;52.098;21.006;2023-05-10T09:52:04;100806.60;;;19.06
68127;BMP180;54931;52.098;21.006;2023-05-10T09:54:34;100800.40;;;19.34
68127;BMP180;54931;52.098;21.006;2023-05-10T09:57:02;100803.60;;;19.36
68127;BMP180;54931;52.098;21.006;2023-05-10T09:59:29;100791.20;;;19.42
68127;BMP180;54931;52.098;21.006;2023-05-10T10:01:59;100793.80;;;19.42
68127;BMP180;54931;52.098;21.006;2023-05-10T10:04:27;100792.80;;;19.32
68127;BMP180;54931;52.098;21.006;2023-05-10T10:07:03;100790.80;;;19.34
68127;BMP180;54931;52.098;21.006;2023-05-10T10:09:33;100790.60;;;19.48
68127;BMP180;54931;52.098;21.006;2023-05-10T10:12:02;100789.00;;;19.40
68127;BMP180;54931;52.098;21.006;2023-05-10T10:14:37;100791.00;;;19.38
68127;BMP180;54931;52.098;21.006;2023-05-10T10:17:07;100785.40;;;19.54
68127;BMP180;54931;52.098;21.006;2023-05-10T10:19:35;100784.60;;;19.48
68127;BMP180;54931;52.098;21.006;2023-05-10T10:22:05;100789.20;;;19.48
68127;BMP180;54931;52.098;21.006;2023-05-10T10:24:33;100781.80;;;19.26
68127;BMP180;54931;52.098;21.006;2023-05-10T10:30:35;100771.20;;;19.20
68127;BMP180;54931;52.098;21.006;2023-05-10T10:33:39;100760.00;;;19.56
68127;BMP180;54931;52.098;21.006;2023-05-10T10:36:07;100767.00;;;19.70
68127;BMP180;54931;52.098;21.006;2023-05-10T10:44:33;100760.80;;;19.90
68127;BMP180;54931;52.098;21.006;2023-05-10T10:47:21;100774.00;;;19.60
68127;BMP180;54931;52.098;21.006;2023-05-10T10:52:28;100760.40;;;19.10
68127;BMP180;54931;52.098;21.006;2023-05-10T10:55:09;100749.80;;;19.10
68127;BMP180;54931;52.098;21.006;2023-05-10T11:00:32;100758.40;;;19.04
68127;BMP180;54931;52.098;21.006;2023-05-10T11:03:09;100759.20;;;19.20
68127;BMP180;54931;52.098;21.006;2023-05-10T11:05:46;100753.20;;;19.28
68127;BMP180;54931;52.098;21.006;2023-05-10T11:11:04;100750.80;;;19.36
68127;BMP180;54931;52.098;21.006;2023-05-10T11:13:44;100749.20;;;19.50
68127;BMP180;54931;52.098;21.006;2023-05-10T11:16:18;100749.60;;;19.56
68127;BMP180;54931;52.098;21.006;2023-05-10T11:19:03;100746.60;;;19.90
68127;BMP180;54931;52.098;21.006;2023-05-10T11:21:33;100744.00;;;20.04
68127;BMP180;54931;52.098;21.006;2023-05-10T11:24:02;100739.00;;;19.80
68127;BMP180;54931;52.098;21.006;2023-05-10T11:26:36;100741.80;;;19.56
68127;BMP180;54931;52.098;21.006;2023-05-10T11:29:04;100744.20;;;19.34
68127;BMP180;54931;52.098;21.006;2023-05-10T11:31:32;100746.80;;;19.38
68127;BMP180;54931;52.098;21.006;2023-05-10T11:34:01;100734.80;;;19.30
68127;BMP180;54931;52.098;21.006;2023-05-10T11:36:36;100743.80;;;19.40
68127;BMP180;54931;52.098;21.006;2023-05-10T11:39:05;100736.40;;;19.42
68127;BMP180;54931;52.098;21.006;2023-05-10T11:41:33;100752.20;;;19.38
68127;BMP180;54931;52.098;21.006;2023-05-10T11:44:02;100741.60;;;19.38
68127;BMP180;54931;52.098;21.006;2023-05-10T11:46:29;100724.00;;;19.40
68127;BMP180;54931;52.098;21.006;2023-05-10T11:49:00;100727.80;;;19.40
68127;BMP180;54931;52.098;21.006;2023-05-10T11:51:32;100724.60;;;19.28
68127;BMP180;54931;52.098;21.006;2023-05-10T11:54:00;100731.80;;;19.38
68127;BMP180;54931;52.098;21.006;2023-05-10T11:56:27;100733.20;;;19.48
68127;BMP180;54931;52.098;21.006;2023-05-10T11:58:57;100737.20;;;19.30
68127;BMP180;54931;52.098;21.006;2023-05-10T12:01:27;100732.80;;;19.20
68127;BMP180;54931;52.098;21.006;2023-05-10T12:03:57;100724.80;;;19.22
68127;BMP180;54931;52.098;21.006;2023-05-10T12:06:31;100718.20;;;19.40
68127;BMP180;54931;52.098;21.006;2023-05-10T12:09:06;100722.20;;;19.20
68127;BMP180;54931;52.098;21.006;2023-05-10T12:11:40;100727.20;;;19.14
68127;BMP180;54931;52.098;21.006;2023-05-10T12:14:08;100722.20;;;19.20
68127;BMP180;54931;52.098;21.006;2023-05-10T12:16:37;100719.40;;;19.16
68127;BMP180;54931;52.098;21.006;2023-05-10T12:19:04;100720.60;;;19.02
68127;BMP180;54931;52.098;21.006;2023-05-10T12:21:33;100721.20;;;19.20
68127;BMP180;54931;52.098;21.006;2023-05-10T12:24:04;100711.80;;;19.14
68127;BMP180;54931;52.098;21.006;2023-05-10T12:26:35;100714.40;;;19.08
68127;BMP180;54931;52.098;21.006;2023-05-10T12:29:24;100726.40;;;19.20
68127;BMP180;54931;52.098;21.006;2023-05-10T12:31:58;100718.80;;;19.34
68127;BMP180;54931;52.098;21.006;2023-05-10T12:34:35;100722.00;;;19.30
68127;BMP180;54931;52.098;21.006;2023-05-10T12:37:04;100716.00;;;19.18
68127;BMP180;54931;52.098;21.006;2023-05-10T12:39:40;100716.60;;;19.16
68127;BMP180;54931;52.098;21.006;2023-05-10T12:42:09;100709.40;;;19.06
68127;BMP180;54931;52.098;21.006;2023-05-10T12:44:37;100701.20;;;19.00
68127;BMP180;54931;52.098;21.006;2023-05-10T12:47:04;100706.40;;;18.86
68127;BMP180;54931;52.098;21.006;2023-05-10T12:49:32;100709.20;;;18.94
68127;BMP180;54931;52.098;21.006;2023-05-10T12:52:01;100707.40;;;19.02
68127;BMP180;54931;52.098;21.006;2023-05-10T12:54:29;100710.20;;;19.10
68127;BMP180;54931;52.098;21.006;2023-05-10T12:56:57;100706.20;;;19.06
68127;BMP180;54931;52.098;21.006;2023-05-10T12:59:25;100704.60;;;19.00
68127;BMP180;54931;52.098;21.006;2023-05-10T13:01:52;100703.60;;;18.92
68127;BMP180;54931;52.098;21.006;2023-05-10T13:04:20;100703.60;;;18.90
68127;BMP180;54931;52.098;21.006;2023-05-10T13:06:48;100703.40;;;18.98
68127;BMP180;54931;52.098;21.006;2023-05-10T13:09:16;100700.80;;;18.90
68127;BMP180;54931;52.098;21.006;2023-05-10T13:11:44;100692.80;;;19.00
68127;BMP180;54931;52.098;21.006;2023-05-10T13:14:12;100694.40;;;19.00
68127;BMP180;54931;52.098;21.006;2023-05-10T13:16:40;100681.80;;;19.10
68127;BMP180;54931;52.098;21.006;2023-05-10T13:19:08;100691.60;;;19.20
68127;BMP180;54931;52.098;21.006;2023-05-10T13:21:36;100691.20;;;19.24
68127;BMP180;54931;52.098;21.006;2023-05-10T13:24:04;100698.00;;;19.18
68127;BMP180;54931;52.098;21.006;2023-05-10T13:26:33;100690.60;;;19.02
68127;BMP180;54931;52.098;21.006;2023-05-10T13:29:02;100687.40;;;19.10
68127;BMP180;54931;52.098;21.006;2023-05-10T13:31:30;100690.00;;;19.20
68127;BMP180;54931;52.098;21.006;2023-05-10T13:33:58;100690.40;;;19.38
68127;BMP180;54931;52.098;21.006;2023-05-10T13:36:26;100689.40;;;19.42
68127;BMP180;54931;52.098;21.006;2023-05-10T13:38:53;100684.80;;;19.48
68127;BMP180;54931;52.098;21.006;2023-05-10T13:41:21;100682.80;;;19.32
68127;BMP180;54931;52.098;21.006;2023-05-10T13:43:49;100692.20;;;19.30
68127;BMP180;54931;52.098;21.006;2023-05-10T13:46:17;100680.00;;;19.12
68127;BMP180;54931;52.098;21.006;2023-05-10T13:48:45;100679.80;;;19.18
68127;BMP180;54931;52.098;21.006;2023-05-10T13:51:13;100676.80;;;19.20
68127;BMP180;54931;52.098;21.006;2023-05-10T13:53:41;100675.80;;;19.30
68127;BMP180;54931;52.098;21.006;2023-05-10T13:56:09;100667.80;;;19.40
68127;BMP180;54931;52.098;21.006;2023-05-10T13:58:36;100674.80;;;19.46
68127;BMP180;54931;52.098;21.006;2023-05-10T14:01:05;100675.20;;;19.22
68127;BMP180;54931;52.098;21.006;2023-05-10T14:03:32;100670.20;;;19.20
68127;BMP180;54931;52.098;21.006;2023-05-10T14:06:00;100662.00;;;19.30
68127;BMP180;54931;52.098;21.006;2023-05-10T14:08:28;100660.80;;;19.40
68127;BMP180;54931;52.098;21.006;2023-05-10T14:10:56;100661.40;;;19.30
68127;BMP180;54931;52.098;21.006;2023-05-10T14:13:24;100668.20;;;19.36
68127;BMP180;54931;52.098;21.006;2023-05-10T14:15:53;100662.80;;;19.36
68127;BMP180;54931;52.098;21.006;2023-05-10T14:18:21;100662.40;;;19.20
68127;BMP180;54931;52.098;21.006;2023-05-10T14:20:49;100656.80;;;19.20
68127;BMP180;54931;52.098;21.006;2023-05-10T14:23:17;100660.80;;;18.96
68127;BMP180;54931;52.098;21.006;2023-05-10T14:25:44;100656.20;;;18.98
68127;BMP180;54931;52.098;21.006;2023-05-10T14:28:12;100658.80;;;19.20
68127;BMP180;54931;52.098;21.006;2023-05-10T14:30:40;100665.00;;;19.18
68127;BMP180;54931;52.098;21.006;2023-05-10T14:33:07;100658.60;;;19.08
68127;BMP180;54931;52.098;21.006;2023-05-10T14:35:36;100658.40;;;19.36
68127;BMP180;54931;52.098;21.006;2023-05-10T14:38:05;100653.60;;;19.56
68127;BMP180;54931;52.098;21.006;2023-05-10T14:40:32;100649.20;;;19.82